GMMC/CAS METAR and TAF weather

Enter ICAO airport designator
Station Type Date Time Source
GMMC METAR 2018/04/19 13:00 UTC NOAA

GMMC 191300Z 02009KT 5000 NSC 24/15 Q1013


Station Type Date Time Source
GMMC Decoded METAR 2018/04/19 13:00 UTC NOAA

Casablanca, Morocco (GMMC) 33-34N 007-40W 62M
Apr 19, 2018 - 09:00 AM EDT / 2018.04.19 1300 UTC
Wind: from the NNE (020 degrees) at 10 MPH (9 KT):0
Visibility: 3 mile(s):0
Temperature: 75 F (24 C)
Dew Point: 59 F (15 C)
Relative Humidity: 57%
Pressure (altimeter): 29.91 in. Hg (1013 hPa)
ob: GMMC 191300Z 02009KT 5000 NSC 24/15 Q1013
cycle: 13

Station Type Date Time Source
GMMC TAF 2016/05/22 17:00 UTC NOAA

FTMC31 GMMC 221700 RRA TAF LPPT 221700Z 2218/2324 34013KT CAVOK
BECMG 2221/2224 34007KT
BECMG 2310/2312 VRB03KT


Example: see airport list